createdAt,value
2023-01-19T00:00:00.620Z,13.0
2023-01-19T00:05:00.593Z,10.8
2023-01-19T00:10:00.754Z,9.1
2023-01-19T00:15:00.611Z,11.6
2023-01-19T00:20:00.723Z,11.4
2023-01-19T00:25:00.604Z,9.1
2023-01-19T00:30:00.727Z,11.5
2023-01-19T00:35:00.597Z,10.8
2023-01-19T00:40:00.611Z,12.0
2023-01-19T00:45:00.765Z,11.3
2023-01-19T00:50:00.618Z,11.1
2023-01-19T00:55:00.585Z,11.0
2023-01-19T01:00:00.617Z,11.6
2023-01-19T01:05:00.630Z,13.1
2023-01-19T01:10:00.669Z,15.0
2023-01-19T01:15:00.609Z,10.6
2023-01-19T01:20:00.737Z,12.5
2023-01-19T01:25:00.613Z,12.3
2023-01-19T01:30:00.617Z,10.4
2023-01-19T01:35:00.590Z,15.1
2023-01-19T01:40:01.023Z,14.6
2023-01-19T01:45:00.600Z,12.5
2023-01-19T01:50:00.591Z,13.2
2023-01-19T01:55:00.591Z,15.8
2023-01-19T02:00:00.620Z,13.7
2023-01-19T02:05:00.712Z,14.4
2023-01-19T02:10:00.587Z,15.2
2023-01-19T02:15:00.643Z,12.2
2023-01-19T02:20:00.593Z,13.7
2023-01-19T02:25:00.623Z,10.6
2023-01-19T02:30:00.620Z,11.2
2023-01-19T02:35:00.653Z,7.8
2023-01-19T02:40:01.094Z,7.7
2023-01-19T02:45:00.620Z,7.9
2023-01-19T02:50:00.674Z,6.7
2023-01-19T02:55:00.628Z,6.4
2023-01-19T03:00:00.592Z,5.8
2023-01-19T03:05:00.761Z,5.8
2023-01-19T03:10:00.667Z,6.1
2023-01-19T03:15:00.662Z,5.6
2023-01-19T03:20:00.612Z,6.3
2023-01-19T03:25:00.599Z,6.0
2023-01-19T03:30:00.604Z,5.4
2023-01-19T03:35:00.715Z,6.0
2023-01-19T03:40:00.668Z,5.9
2023-01-19T03:45:00.583Z,5.7
2023-01-19T03:50:00.626Z,5.5
2023-01-19T03:55:00.657Z,5.1
2023-01-19T04:00:00.603Z,4.0
2023-01-19T04:05:00.644Z,4.1
2023-01-19T04:10:00.736Z,6.3
2023-01-19T04:15:00.680Z,7.8
2023-01-19T04:20:00.614Z,5.1
2023-01-19T04:25:00.612Z,7.8
2023-01-19T04:30:00.652Z,5.6
2023-01-19T04:35:00.607Z,5.9
2023-01-19T04:40:00.624Z,4.0
2023-01-19T04:45:00.598Z,5.2
2023-01-19T04:50:00.806Z,3.6
2023-01-19T04:55:00.600Z,4.7
2023-01-19T05:00:00.798Z,4.0
2023-01-19T05:05:00.609Z,3.1
2023-01-19T05:10:00.697Z,5.3
2023-01-19T05:15:00.696Z,5.5
2023-01-19T05:20:00.623Z,4.1
2023-01-19T05:25:00.714Z,6.3
2023-01-19T05:30:00.675Z,3.7
2023-01-19T05:35:00.678Z,7.0
2023-01-19T05:40:00.660Z,1.6
2023-01-19T05:45:01.072Z,9.0
2023-01-19T05:50:00.604Z,5.9
2023-01-19T05:55:00.618Z,6.2
2023-01-19T06:00:00.602Z,3.6
2023-01-19T06:05:00.615Z,4.4
2023-01-19T06:10:00.871Z,7.1
2023-01-19T06:15:00.589Z,3.5
2023-01-19T06:20:00.622Z,6.3
2023-01-19T06:25:00.648Z,3.8
2023-01-19T06:30:00.649Z,5.9
2023-01-19T06:35:00.711Z,7.6
2023-01-19T06:40:00.583Z,5.5
2023-01-19T06:45:00.636Z,10.5
2023-01-19T06:50:00.591Z,5.7
2023-01-19T06:55:00.844Z,7.0
2023-01-19T07:00:00.627Z,6.1
2023-01-19T07:05:00.619Z,7.9
2023-01-19T07:10:00.749Z,11.7
2023-01-19T07:15:00.691Z,9.6
2023-01-19T07:20:00.596Z,9.3
2023-01-19T07:25:00.612Z,6.6
2023-01-19T07:30:02.237Z,9.9
2023-01-19T07:35:00.610Z,7.2
2023-01-19T07:40:00.611Z,10.5
2023-01-19T07:45:00.641Z,9.4
2023-01-19T07:50:00.627Z,9.9
2023-01-19T07:55:00.664Z,7.8
2023-01-19T08:00:00.810Z,0.0
2023-01-19T08:05:00.615Z,0.0
2023-01-19T08:10:00.608Z,9.2
2023-01-19T08:15:00.610Z,10.8
2023-01-19T08:20:00.618Z,11.6
2023-01-19T08:25:00.643Z,4.9
2023-01-19T08:30:00.666Z,9.8
2023-01-19T08:35:00.663Z,13.6
2023-01-19T08:40:00.632Z,6.3
2023-01-19T08:45:00.601Z,12.1
2023-01-19T08:50:00.610Z,9.8
2023-01-19T08:55:00.617Z,8.7
2023-01-19T09:00:00.653Z,16.9
2023-01-19T09:05:00.613Z,8.2
2023-01-19T09:10:00.613Z,7.8
2023-01-19T09:15:00.680Z,8.5
2023-01-19T09:20:01.512Z,8.5
2023-01-19T09:25:00.898Z,4.7
2023-01-19T09:30:00.652Z,13.4
2023-01-19T09:35:00.613Z,6.7
2023-01-19T09:40:00.721Z,11.2
2023-01-19T09:45:00.868Z,14.4
2023-01-19T09:50:00.643Z,13.7
2023-01-19T09:55:00.595Z,9.9
2023-01-19T10:00:00.624Z,8.8
2023-01-19T10:05:00.641Z,11.2
2023-01-19T10:10:00.815Z,11.6
2023-01-19T10:15:00.617Z,10.3
2023-01-19T10:20:00.673Z,8.4
2023-01-19T10:25:00.633Z,10.7
2023-01-19T10:30:00.868Z,17.8
2023-01-19T10:35:00.625Z,9.9
2023-01-19T10:40:00.654Z,11.0
2023-01-19T10:45:00.588Z,11.1
2023-01-19T10:50:00.744Z,9.5
2023-01-19T10:55:00.682Z,11.1
2023-01-19T11:00:00.694Z,12.3
2023-01-19T11:05:00.824Z,11.2
2023-01-19T11:10:00.635Z,10.6
2023-01-19T11:15:00.690Z,11.7
2023-01-19T11:20:00.636Z,12.9
2023-01-19T11:25:00.653Z,8.7
2023-01-19T11:30:00.615Z,9.4
2023-01-19T11:35:00.651Z,11.2
2023-01-19T11:40:00.639Z,8.1
2023-01-19T11:45:00.625Z,8.8
2023-01-19T11:50:00.614Z,7.1
2023-01-19T11:55:00.660Z,10.9
2023-01-19T12:00:00.583Z,9.1
2023-01-19T12:05:00.632Z,7.3
2023-01-19T12:10:00.596Z,6.5
2023-01-19T12:15:00.610Z,4.9
2023-01-19T12:20:00.707Z,5.4
2023-01-19T12:25:00.756Z,8.3
2023-01-19T12:30:01.250Z,11.9
2023-01-19T12:35:00.698Z,7.2
2023-01-19T12:40:00.651Z,5.3
2023-01-19T12:45:00.615Z,8.3
2023-01-19T12:50:00.625Z,4.9
2023-01-19T12:55:00.661Z,4.5
2023-01-19T13:00:00.625Z,3.8
2023-01-19T13:05:00.609Z,4.8
2023-01-19T13:10:00.629Z,3.1
2023-01-19T13:15:01.056Z,7.6
2023-01-19T13:20:00.673Z,4.7
2023-01-19T13:25:00.786Z,1.7
2023-01-19T13:30:01.375Z,0.0
2023-01-19T13:35:01.115Z,2.4
2023-01-19T13:40:01.223Z,4.8
2023-01-19T13:45:00.625Z,4.6
2023-01-19T13:50:01.112Z,5.5
2023-01-19T13:55:03.045Z,6.7
2023-01-19T14:00:00.809Z,6.8
2023-01-19T14:05:00.694Z,5.4
2023-01-19T14:10:00.621Z,4.9
2023-01-19T14:15:00.724Z,5.3
2023-01-19T14:20:01.543Z,4.3
2023-01-19T14:25:00.642Z,4.6
2023-01-19T14:30:00.612Z,3.7
2023-01-19T14:35:01.287Z,4.4
2023-01-19T14:40:00.646Z,6.3
2023-01-19T14:45:00.634Z,6.0
2023-01-19T14:50:01.915Z,12.5
2023-01-19T14:55:00.622Z,4.0
2023-01-19T15:00:00.611Z,2.1
2023-01-19T15:05:00.607Z,3.9
2023-01-19T15:10:00.630Z,7.6
2023-01-19T15:15:00.682Z,5.7
2023-01-19T15:20:00.611Z,5.4
2023-01-19T15:25:00.590Z,4.2
2023-01-19T15:30:00.593Z,5.7
2023-01-19T15:35:00.735Z,3.1
2023-01-19T15:40:00.677Z,3.5
2023-01-19T15:45:00.609Z,5.6
2023-01-19T15:50:00.672Z,3.2
2023-01-19T15:55:00.614Z,9.0
2023-01-19T16:00:00.622Z,3.5
2023-01-19T16:05:00.616Z,5.1
2023-01-19T16:10:00.744Z,5.5
2023-01-19T16:15:00.835Z,7.5
2023-01-19T16:20:01.086Z,5.9
2023-01-19T16:25:00.623Z,5.7
2023-01-19T16:30:00.796Z,4.9
2023-01-19T16:35:00.721Z,9.7
2023-01-19T16:40:00.613Z,5.4
2023-01-19T16:45:00.629Z,4.5
2023-01-19T16:50:00.666Z,4.1
2023-01-19T16:55:00.607Z,5.4
2023-01-19T17:00:00.658Z,9.0
2023-01-19T17:05:00.594Z,7.5
2023-01-19T17:10:00.644Z,5.9
2023-01-19T17:15:00.806Z,7.5
2023-01-19T17:20:01.631Z,0.0
2023-01-19T17:25:01.688Z,9.6
2023-01-19T17:30:00.722Z,9.5
2023-01-19T17:35:00.729Z,9.2
2023-01-19T17:40:00.720Z,7.5
2023-01-19T17:45:00.644Z,11.2
2023-01-19T17:50:00.767Z,9.7
2023-01-19T17:55:00.596Z,11.6
2023-01-19T18:00:00.611Z,8.6
2023-01-19T18:05:00.632Z,9.0
2023-01-19T18:10:01.278Z,8.2
2023-01-19T18:15:00.627Z,9.5
2023-01-19T18:20:00.659Z,8.9
2023-01-19T18:45:00.262Z,17.1
2023-01-19T18:50:00.239Z,16.5
2023-01-19T18:55:00.249Z,17.5
2023-01-19T19:00:00.304Z,21.0
2023-01-19T19:05:00.238Z,18.0
2023-01-19T19:10:00.257Z,20.2
2023-01-19T19:15:00.243Z,22.4
2023-01-19T19:20:00.247Z,26.5
2023-01-19T19:25:00.251Z,29.4
2023-01-19T19:30:00.288Z,28.6
2023-01-19T19:35:00.241Z,30.3
2023-01-19T19:40:00.240Z,32.3
2023-01-19T19:45:00.261Z,36.7
2023-01-19T19:50:00.241Z,31.1
2023-01-19T19:55:00.266Z,28.7
2023-01-19T20:00:00.248Z,0.0
2023-01-19T20:05:00.343Z,33.3
2023-01-19T20:10:00.254Z,33.0
2023-01-19T20:15:00.239Z,34.0
2023-01-19T20:20:00.236Z,31.4
2023-01-19T20:25:00.275Z,25.0
2023-01-19T20:30:00.243Z,21.4
2023-01-19T20:35:00.252Z,22.0
2023-01-19T20:40:00.265Z,20.8
2023-01-19T20:45:00.261Z,23.6
2023-01-19T20:50:00.238Z,17.2
2023-01-19T20:55:00.307Z,18.5
2023-01-19T21:00:00.246Z,17.8
2023-01-19T21:05:00.237Z,12.4
2023-01-19T21:10:00.250Z,15.5
2023-01-19T21:15:00.243Z,12.8
2023-01-19T21:20:00.268Z,9.7
2023-01-19T21:25:00.251Z,9.5
2023-01-19T21:30:00.241Z,9.3
2023-01-19T21:35:00.249Z,8.3
2023-01-19T21:40:00.259Z,9.7
2023-01-19T21:45:00.259Z,12.1
2023-01-19T21:50:00.255Z,13.4
2023-01-19T21:55:00.264Z,17.6
2023-01-19T22:00:00.236Z,18.8
2023-01-19T22:05:00.242Z,20.0
2023-01-19T22:10:00.257Z,16.9
2023-01-19T22:15:00.242Z,16.7
2023-01-19T22:20:00.244Z,18.1
2023-01-19T22:25:00.240Z,16.0
2023-01-19T22:30:00.264Z,17.7
2023-01-19T22:35:00.242Z,15.6
2023-01-19T22:40:00.245Z,16.8
2023-01-19T22:45:00.255Z,15.4
2023-01-19T22:50:00.284Z,15.9
2023-01-19T22:55:00.244Z,13.9
2023-01-19T23:00:00.254Z,12.0
2023-01-19T23:05:00.248Z,15.0
2023-01-19T23:10:00.240Z,14.0
2023-01-19T23:15:00.265Z,0.0
2023-01-19T23:20:00.244Z,17.8
2023-01-19T23:25:00.247Z,14.4
2023-01-19T23:30:00.244Z,12.6
2023-01-19T23:35:00.240Z,14.5
2023-01-19T23:40:00.252Z,12.0
2023-01-19T23:45:00.254Z,17.1
2023-01-19T23:50:00.254Z,11.6
2023-01-19T23:55:00.242Z,13.0
